Time;durP1;ratioP1;P1;durP2;ratioP2;P2;SDS_P1;SDS_P2;PMS_P1;PMS_P2;Temp;Humidity;BMP_temperature;BMP_pressure;BME280_temperature;BME280_humidity;BME280_pressure;Samples;Min_cycle;Max_cycle;Signal;HPM_P1;HPM_P2
2023/05/25 00:01:35;;;;;;;;;;;11.60;99.90;;;;;;5077546;28;19916;-73
2023/05/25 00:04:03;;;;;;;;;;;11.70;99.90;;;;;;5077870;28;19927;-75
2023/05/25 00:06:32;;;;;;;;;;;11.60;99.90;;;;;;5079806;28;20364;-72
2023/05/25 00:08:57;;;;;;;;;;;11.60;99.90;;;;;;5077093;28;20446;-73
2023/05/25 00:11:23;;;;;;;;;;;11.60;99.90;;;;;;5078967;28;19916;-74
2023/05/25 00:13:49;;;;;;;;;;;11.60;99.90;;;;;;5077204;28;20539;-74
2023/05/25 00:16:15;;;;;;;;;;;11.60;99.90;;;;;;5074211;28;19999;-75
2023/05/25 00:18:42;;;;;;;;;;;11.60;99.90;;;;;;5077745;28;19923;-74
2023/05/25 00:21:07;;;;;;;;;;;11.50;99.90;;;;;;5080521;28;19923;-73
2023/05/25 00:23:33;;;;;;;;;;;11.60;99.90;;;;;;5077790;28;19916;-75
2023/05/25 00:25:59;;;;;;;;;;;11.50;99.90;;;;;;5079877;28;19919;-74
2023/05/25 00:28:25;;;;;;;;;;;11.60;99.90;;;;;;5080920;28;19916;-74
2023/05/25 00:30:50;;;;;;;;;;;11.50;99.90;;;;;;5080865;28;19927;-74
2023/05/25 00:33:16;;;;;;;;;;;11.50;99.90;;;;;;5075730;28;20000;-73
2023/05/25 00:35:42;;;;;;;;;;;11.50;99.90;;;;;;5077181;28;20272;-72
2023/05/25 00:38:12;;;;;;;;;;;11.50;99.90;;;;;;5093311;28;19956;-73
2023/05/25 00:40:38;;;;;;;;;;;11.50;99.90;;;;;;5079297;28;20307;-73
2023/05/25 00:43:04;;;;;;;;;;;11.50;99.90;;;;;;5078948;28;19908;-74
2023/05/25 00:45:30;;;;;;;;;;;11.40;99.90;;;;;;5079294;28;19920;-74
2023/05/25 00:47:56;;;;;;;;;;;11.40;99.90;;;;;;5076249;28;19959;-72
2023/05/25 00:50:32;;;;;;;;;;;11.40;99.90;;;;;;5078173;28;19923;-74
2023/05/25 00:52:58;;;;;;;;;;;11.40;99.90;;;;;;5078810;28;19911;-74
2023/05/25 00:55:24;;;;;;;;;;;11.40;99.90;;;;;;5077200;28;19908;-72
2023/05/25 00:57:50;;;;;;;;;;;11.40;99.90;;;;;;5077444;28;20391;-74
2023/05/25 01:00:16;;;;;;;;;;;11.40;99.90;;;;;;5079863;28;19952;-72
2023/05/25 01:02:43;;;;;;;;;;;11.40;99.90;;;;;;5079409;28;19916;-72
2023/05/25 01:05:10;;;;;;;;;;;11.40;99.90;;;;;;5077585;28;20303;-73
2023/05/25 01:07:37;;;;;;;;;;;11.40;99.90;;;;;;5077451;28;19938;-74
2023/05/25 01:10:08;;;;;;;;;;;11.30;99.90;;;;;;5077452;28;20435;-73
2023/05/25 01:12:35;;;;;;;;;;;11.30;99.90;;;;;;5076568;28;19991;-72
2023/05/25 01:15:02;;;;;;;;;;;11.30;99.90;;;;;;5063185;28;19915;-74
2023/05/25 01:17:28;;;;;;;;;;;11.30;99.90;;;;;;5079798;28;20446;-75
2023/05/25 01:19:54;;;;;;;;;;;11.20;99.90;;;;;;5078923;28;19914;-74
2023/05/25 01:22:39;;;;;;;;;;;11.30;99.90;;;;;;5061444;28;20516;-73
2023/05/25 01:25:08;;;;;;;;;;;11.20;99.90;;;;;;5093473;28;19970;-73
2023/05/25 01:27:45;;;;;;;;;;;11.30;99.90;;;;;;5092517;28;19912;-74
2023/05/25 01:30:12;;;;;;;;;;;11.30;99.90;;;;;;5077620;28;20383;-73
2023/05/25 01:32:40;;;;;;;;;;;11.20;99.90;;;;;;5076191;28;19969;-74
2023/05/25 01:35:06;;;;;;;;;;;11.20;99.90;;;;;;5076440;28;19916;-74
2023/05/25 01:37:31;;;;;;;;;;;11.20;99.90;;;;;;5074286;28;20431;-74
2023/05/25 01:39:57;;;;;;;;;;;11.20;99.90;;;;;;5075826;28;19923;-74
2023/05/25 01:42:23;;;;;;;;;;;11.20;99.90;;;;;;5079658;28;20278;-75
2023/05/25 01:44:49;;;;;;;;;;;11.20;99.90;;;;;;5061244;28;20002;-73
2023/05/25 01:47:35;;;;;;;;;;;11.10;99.90;;;;;;5075816;28;19916;-73
2023/05/25 01:50:14;;;;;;;;;;;11.10;99.90;;;;;;5075770;28;20441;-74
2023/05/25 01:52:50;;;;;;;;;;;11.10;99.90;;;;;;5074903;28;19970;-74
2023/05/25 01:55:17;;;;;;;;;;;11.10;99.90;;;;;;5074194;28;19916;-74
2023/05/25 01:57:45;;;;;;;;;;;11.10;99.90;;;;;;5075786;28;19916;-73
2023/05/25 02:00:11;;;;;;;;;;;11.00;99.90;;;;;;5077053;28;19955;-75
2023/05/25 02:02:38;;;;;;;;;;;11.00;99.90;;;;;;5074609;28;19928;-72
2023/05/25 02:05:03;;;;;;;;;;;11.00;99.90;;;;;;5072062;28;19920;-72
2023/05/25 02:07:29;;;;;;;;;;;11.10;99.90;;;;;;5087256;28;19912;-74
2023/05/25 02:09:55;;;;;;;;;;;11.00;99.90;;;;;;5081196;28;19966;-72
2023/05/25 02:12:20;;;;;;;;;;;11.00;99.90;;;;;;5081234;28;20582;-73
2023/05/25 02:14:47;;;;;;;;;;;11.00;99.90;;;;;;5084164;28;19965;-73
2023/05/25 02:17:13;;;;;;;;;;;11.00;99.90;;;;;;5062761;28;19916;-75
2023/05/25 02:19:39;;;;;;;;;;;11.00;99.90;;;;;;5078505;28;19912;-73
2023/05/25 02:22:04;;;;;;;;;;;11.00;99.90;;;;;;5075219;28;20327;-74
2023/05/25 02:24:30;;;;;;;;;;;10.90;99.90;;;;;;5075145;28;19943;-73
2023/05/25 02:26:56;;;;;;;;;;;10.90;99.90;;;;;;5080299;28;20048;-74
2023/05/25 02:29:21;;;;;;;;;;;11.00;99.90;;;;;;5073584;28;20385;-74
2023/05/25 02:31:47;;;;;;;;;;;11.00;99.90;;;;;;5079156;28;19924;-74
2023/05/25 02:34:12;;;;;;;;;;;10.90;99.90;;;;;;5077534;28;19912;-74
2023/05/25 02:36:38;;;;;;;;;;;10.90;99.90;;;;;;5075765;28;19922;-75
2023/05/25 02:39:04;;;;;;;;;;;10.90;99.90;;;;;;5073942;28;19912;-73
2023/05/25 02:41:29;;;;;;;;;;;10.90;99.90;;;;;;5076870;28;19916;-73
2023/05/25 02:43:55;;;;;;;;;;;10.90;99.90;;;;;;5074503;28;19920;-73
2023/05/25 02:46:22;;;;;;;;;;;10.90;99.90;;;;;;5074360;28;19959;-73
2023/05/25 02:48:47;;;;;;;;;;;10.90;99.90;;;;;;5077423;28;19912;-75
2023/05/25 02:51:13;;;;;;;;;;;10.90;99.90;;;;;;5073986;28;19916;-74
2023/05/25 02:53:38;;;;;;;;;;;10.90;99.90;;;;;;5072586;28;19916;-72
2023/05/25 02:56:05;;;;;;;;;;;10.90;99.90;;;;;;5076937;28;19916;-73
2023/05/25 02:58:30;;;;;;;;;;;10.90;99.90;;;;;;5075933;28;19909;-74
2023/05/25 03:00:58;;;;;;;;;;;10.90;99.90;;;;;;5086935;28;19919;-74
2023/05/25 03:03:25;;;;;;;;;;;10.80;99.90;;;;;;5096662;28;19916;-75
2023/05/25 03:05:51;;;;;;;;;;;10.90;99.90;;;;;;5074439;28;20388;-75
2023/05/25 03:08:16;;;;;;;;;;;10.90;99.90;;;;;;5074906;28;20393;-74
2023/05/25 03:10:42;;;;;;;;;;;10.90;99.90;;;;;;5052845;28;19920;-72
2023/05/25 03:13:07;;;;;;;;;;;10.90;99.90;;;;;;5071829;28;19931;-73
2023/05/25 03:15:33;;;;;;;;;;;10.90;99.90;;;;;;5074353;28;19916;-74
2023/05/25 03:18:00;;;;;;;;;;;10.90;99.90;;;;;;5091330;28;19923;-73
2023/05/25 03:20:29;;;;;;;;;;;10.90;99.90;;;;;;5072530;28;19961;-76
2023/05/25 03:22:54;;;;;;;;;;;10.90;99.90;;;;;;5073934;28;19912;-76
2023/05/25 03:25:20;;;;;;;;;;;10.90;99.90;;;;;;5075921;28;19916;-72
2023/05/25 03:27:46;;;;;;;;;;;10.90;99.90;;;;;;5071917;28;20367;-74
2023/05/25 03:30:12;;;;;;;;;;;10.90;99.90;;;;;;5077240;28;19919;-74
2023/05/25 03:32:37;;;;;;;;;;;10.90;99.90;;;;;;5075192;28;19920;-74
2023/05/25 03:35:04;;;;;;;;;;;10.90;99.90;;;;;;5079421;28;19912;-74
2023/05/25 03:37:29;;;;;;;;;;;10.90;99.90;;;;;;5058344;28;20454;-73
2023/05/25 03:39:55;;;;;;;;;;;10.90;99.90;;;;;;5074836;28;19918;-74
2023/05/25 03:42:21;;;;;;;;;;;10.90;99.90;;;;;;5073721;28;20105;-73
2023/05/25 03:44:46;;;;;;;;;;;10.80;99.90;;;;;;5073501;28;20335;-73
2023/05/25 03:47:12;;;;;;;;;;;10.80;99.90;;;;;;5056053;28;19920;-74
2023/05/25 03:49:37;;;;;;;;;;;10.80;99.90;;;;;;5057562;28;19986;-75
2023/05/25 03:52:05;;;;;;;;;;;10.80;99.90;;;;;;5076074;28;19919;-76
2023/05/25 03:54:30;;;;;;;;;;;10.80;99.90;;;;;;5076731;28;19921;-74
2023/05/25 03:56:58;;;;;;;;;;;10.80;99.90;;;;;;5079669;28;20124;-76
2023/05/25 03:59:24;;;;;;;;;;;10.90;99.90;;;;;;5074927;28;19921;-75
2023/05/25 04:01:50;;;;;;;;;;;10.90;99.90;;;;;;5073591;28;20710;-73
2023/05/25 04:04:16;;;;;;;;;;;10.90;99.90;;;;;;5075828;28;19912;-74
2023/05/25 04:06:44;;;;;;;;;;;11.00;99.90;;;;;;5058166;28;20027;-74
2023/05/25 04:09:10;;;;;;;;;;;11.00;99.90;;;;;;5080109;28;19917;-73
2023/05/25 04:11:36;;;;;;;;;;;11.10;99.90;;;;;;5075778;28;19916;-75
2023/05/25 04:14:01;;;;;;;;;;;11.00;99.90;;;;;;5080121;28;20395;-74
2023/05/25 04:16:27;;;;;;;;;;;11.10;99.90;;;;;;5079440;28;19923;-73
2023/05/25 04:18:53;;;;;;;;;;;11.00;99.90;;;;;;5078359;28;19912;-75
2023/05/25 04:21:18;;;;;;;;;;;11.00;99.90;;;;;;5061576;28;20399;-74
2023/05/25 04:23:44;;;;;;;;;;;11.00;99.90;;;;;;5075012;28;20007;-73
2023/05/25 04:26:10;;;;;;;;;;;11.00;99.90;;;;;;5076024;28;20325;-73
2023/05/25 04:28:41;;;;;;;;;;;11.00;99.90;;;;;;5077666;28;19916;-76
2023/05/25 04:31:07;;;;;;;;;;;10.90;99.90;;;;;;5077513;28;19969;-74
2023/05/25 04:33:37;;;;;;;;;;;11.00;99.90;;;;;;5080364;28;20622;-74
2023/05/25 04:36:07;;;;;;;;;;;11.00;99.90;;;;;;5076559;28;19980;-75
2023/05/25 04:38:33;;;;;;;;;;;11.00;99.90;;;;;;5064894;28;19916;-75
2023/05/25 04:41:01;;;;;;;;;;;11.00;99.90;;;;;;5080847;28;19967;-75
2023/05/25 04:43:28;;;;;;;;;;;11.00;99.90;;;;;;5083622;28;19916;-75
2023/05/25 04:45:54;;;;;;;;;;;11.00;99.90;;;;;;5080472;28;19920;-74
2023/05/25 04:48:20;;;;;;;;;;;11.00;99.90;;;;;;5084672;28;20028;-76
2023/05/25 04:50:46;;;;;;;;;;;10.90;99.90;;;;;;5080752;28;20132;-74
2023/05/25 04:53:11;;;;;;;;;;;11.00;99.90;;;;;;5084660;28;20035;-76
2023/05/25 04:55:38;;;;;;;;;;;11.00;99.90;;;;;;5065094;28;19916;-76
2023/05/25 04:58:04;;;;;;;;;;;11.00;99.90;;;;;;5063449;28;19920;-73
2023/05/25 05:00:30;;;;;;;;;;;11.10;99.90;;;;;;5081399;28;19916;-75
2023/05/25 05:02:57;;;;;;;;;;;11.00;99.90;;;;;;5073052;28;19920;-76
2023/05/25 05:05:23;;;;;;;;;;;11.10;99.90;;;;;;5076858;28;19928;-74
2023/05/25 05:07:49;;;;;;;;;;;11.10;99.90;;;;;;5077678;28;19916;-73
2023/05/25 05:10:14;;;;;;;;;;;11.10;99.90;;;;;;5086502;28;19956;-76
2023/05/25 05:12:40;;;;;;;;;;;11.10;99.90;;;;;;5058657;28;19981;-75
2023/05/25 05:15:06;;;;;;;;;;;11.20;99.90;;;;;;5075261;28;19912;-75
2023/05/25 05:17:32;;;;;;;;;;;11.10;99.90;;;;;;5075615;28;19912;-72
2023/05/25 05:19:57;;;;;;;;;;;11.20;99.90;;;;;;5074382;28;19916;-73
2023/05/25 05:22:23;;;;;;;;;;;11.20;99.90;;;;;;5079540;28;20011;-73
2023/05/25 05:24:48;;;;;;;;;;;11.30;99.90;;;;;;5068445;28;20319;-73
2023/05/25 05:27:14;;;;;;;;;;;11.40;99.90;;;;;;5081545;28;20318;-75
2023/05/25 05:29:40;;;;;;;;;;;11.40;99.90;;;;;;5075478;28;20070;-72
2023/05/25 05:32:07;;;;;;;;;;;11.50;99.90;;;;;;5077057;28;19921;-73
2023/05/25 05:34:33;;;;;;;;;;;11.50;99.90;;;;;;5074404;28;19913;-73
2023/05/25 05:37:01;;;;;;;;;;;11.50;99.90;;;;;;5079333;28;19965;-76
2023/05/25 05:39:27;;;;;;;;;;;11.50;99.90;;;;;;5078636;28;20007;-76
2023/05/25 05:41:53;;;;;;;;;;;11.50;99.90;;;;;;5063126;28;19959;-75
2023/05/25 05:44:22;;;;;;;;;;;11.50;99.90;;;;;;5087995;28;20973;-74
2023/05/25 05:46:47;;;;;;;;;;;11.50;99.90;;;;;;5073214;28;20038;-72
2023/05/25 05:49:13;;;;;;;;;;;11.50;99.90;;;;;;5069924;28;20018;-71
2023/05/25 05:51:38;;;;;;;;;;;11.60;99.90;;;;;;5077654;28;19920;-71
2023/05/25 05:54:04;;;;;;;;;;;11.60;99.90;;;;;;5076592;28;19916;-72
2023/05/25 05:56:30;;;;;;;;;;;11.60;99.90;;;;;;5076284;28;19912;-76
2023/05/25 05:58:56;;;;;;;;;;;11.60;99.90;;;;;;5068881;28;19916;-75
2023/05/25 06:01:22;;;;;;;;;;;11.70;99.90;;;;;;5073466;28;20007;-76
2023/05/25 06:03:48;;;;;;;;;;;11.60;99.90;;;;;;5073875;28;20328;-78
2023/05/25 06:06:14;;;;;;;;;;;11.70;99.90;;;;;;5077393;28;19946;-80
2023/05/25 06:08:40;;;;;;;;;;;11.70;99.90;;;;;;5077011;28;19912;-76
2023/05/25 06:11:05;;;;;;;;;;;11.70;99.90;;;;;;5075220;28;19923;-76
2023/05/25 06:13:31;;;;;;;;;;;11.80;99.90;;;;;;5076896;28;19913;-76
2023/05/25 06:15:57;;;;;;;;;;;11.80;99.90;;;;;;5076420;28;20333;-77
2023/05/25 06:18:22;;;;;;;;;;;11.80;99.90;;;;;;5069754;28;19916;-77
2023/05/25 06:20:48;;;;;;;;;;;11.90;99.90;;;;;;5062530;28;19953;-72
2023/05/25 06:23:14;;;;;;;;;;;12.00;99.90;;;;;;5074052;28;20378;-75
2023/05/25 06:25:40;;;;;;;;;;;12.00;99.90;;;;;;5080528;28;19912;-76
2023/05/25 06:28:05;;;;;;;;;;;12.10;99.90;;;;;;5074851;28;19912;-75
2023/05/25 06:30:31;;;;;;;;;;;12.20;99.90;;;;;;5077525;28;19989;-72
2023/05/25 06:32:56;;;;;;;;;;;12.30;99.90;;;;;;5074672;28;20023;-75
2023/05/25 06:35:22;;;;;;;;;;;12.30;99.90;;;;;;5075854;28;19916;-77
2023/05/25 06:37:48;;;;;;;;;;;12.40;99.90;;;;;;5090654;28;20015;-75
2023/05/25 06:40:16;;;;;;;;;;;12.40;99.90;;;;;;5070885;28;19919;-73
2023/05/25 06:42:42;;;;;;;;;;;12.40;99.90;;;;;;5073619;28;19916;-74
2023/05/25 06:45:08;;;;;;;;;;;12.50;99.90;;;;;;5071983;28;20583;-74
2023/05/25 06:47:34;;;;;;;;;;;12.50;99.90;;;;;;5072686;28;19920;-73
2023/05/25 06:50:00;;;;;;;;;;;12.50;99.90;;;;;;5067736;28;19924;-73
2023/05/25 06:52:30;;;;;;;;;;;12.40;99.90;;;;;;5074485;28;19924;-73
2023/05/25 06:54:56;;;;;;;;;;;12.40;99.90;;;;;;5072268;28;19957;-70
2023/05/25 06:57:22;;;;;;;;;;;12.40;99.90;;;;;;5069512;28;20447;-74
2023/05/25 06:59:47;;;;;;;;;;;12.50;99.90;;;;;;5073402;28;19912;-74
2023/05/25 07:02:13;;;;;;;;;;;12.60;99.90;;;;;;5068581;28;20400;-74
2023/05/25 07:04:39;;;;;;;;;;;12.50;99.90;;;;;;5075859;28;20008;-75
2023/05/25 07:07:05;;;;;;;;;;;12.50;99.90;;;;;;5074701;28;19916;-75
2023/05/25 07:09:31;;;;;;;;;;;12.50;99.90;;;;;;5074357;28;20564;-76
2023/05/25 07:11:57;;;;;;;;;;;12.50;99.90;;;;;;5071647;28;19954;-74
2023/05/25 07:14:24;;;;;;;;;;;12.50;99.90;;;;;;5073034;28;20649;-74
2023/05/25 07:16:50;;;;;;;;;;;12.60;99.90;;;;;;5072736;28;19912;-74
2023/05/25 07:19:16;;;;;;;;;;;12.60;99.90;;;;;;5071056;28;19912;-73
2023/05/25 07:21:42;;;;;;;;;;;12.70;99.90;;;;;;5088599;28;20308;-74
2023/05/25 07:24:08;;;;;;;;;;;12.80;99.90;;;;;;5078090;28;19923;-73
2023/05/25 07:26:35;;;;;;;;;;;12.90;99.90;;;;;;5056170;28;20289;-71
2023/05/25 07:29:01;;;;;;;;;;;13.10;99.90;;;;;;5072194;28;20379;-71
2023/05/25 07:31:26;;;;;;;;;;;13.10;99.90;;;;;;5073433;28;19947;-71
2023/05/25 07:33:54;;;;;;;;;;;13.10;99.90;;;;;;5072590;28;19923;-71
2023/05/25 07:36:25;;;;;;;;;;;13.20;99.90;;;;;;5076296;28;20576;-71
2023/05/25 07:38:51;;;;;;;;;;;13.20;99.90;;;;;;5069950;28;19922;-73
2023/05/25 07:41:17;;;;;;;;;;;13.20;99.90;;;;;;5067555;28;19916;-74
2023/05/25 07:43:42;;;;;;;;;;;13.20;99.90;;;;;;5078080;28;19991;-73
2023/05/25 07:46:08;;;;;;;;;;;13.20;99.90;;;;;;5079981;28;19924;-74
2023/05/25 07:48:34;;;;;;;;;;;13.20;99.90;;;;;;5079378;28;19920;-70
2023/05/25 07:50:59;;;;;;;;;;;13.30;99.90;;;;;;5079980;28;19916;-71
2023/05/25 07:53:25;;;;;;;;;;;13.30;99.90;;;;;;5080054;28;20400;-71
2023/05/25 07:55:51;;;;;;;;;;;13.50;99.90;;;;;;5080559;28;19920;-71
2023/05/25 07:58:16;;;;;;;;;;;13.70;99.90;;;;;;5075864;28;20439;-71
2023/05/25 08:00:43;;;;;;;;;;;13.90;99.90;;;;;;5080179;28;19908;-74
2023/05/25 08:03:09;;;;;;;;;;;14.00;99.90;;;;;;5078516;28;19962;-71
2023/05/25 08:05:35;;;;;;;;;;;14.10;99.90;;;;;;5080043;28;20253;-74
2023/05/25 08:08:01;;;;;;;;;;;14.10;99.90;;;;;;5076391;28;19920;-72
2023/05/25 08:10:30;;;;;;;;;;;14.00;99.90;;;;;;5081124;28;20397;-74
2023/05/25 08:12:57;;;;;;;;;;;13.90;99.90;;;;;;5078805;28;19925;-71
2023/05/25 08:15:23;;;;;;;;;;;13.80;99.90;;;;;;5076380;28;19952;-71
2023/05/25 08:17:51;;;;;;;;;;;13.70;99.90;;;;;;5080400;28;20084;-73
2023/05/25 08:20:17;;;;;;;;;;;13.80;99.90;;;;;;5077743;28;19920;-71
2023/05/25 08:22:42;;;;;;;;;;;13.80;99.90;;;;;;5077610;28;19912;-69
2023/05/25 08:25:08;;;;;;;;;;;13.80;99.90;;;;;;5080650;28;19908;-69
2023/05/25 08:27:34;;;;;;;;;;;13.90;99.90;;;;;;5078598;28;19916;-72
2023/05/25 08:29:59;;;;;;;;;;;14.20;99.90;;;;;;5077738;28;20040;-73
2023/05/25 08:32:25;;;;;;;;;;;14.20;99.90;;;;;;5073915;28;19955;-73
2023/05/25 08:34:51;;;;;;;;;;;14.30;99.90;;;;;;5080091;28;20382;-73
2023/05/25 08:37:16;;;;;;;;;;;14.30;99.90;;;;;;5079421;28;19908;-73
2023/05/25 08:39:42;;;;;;;;;;;14.40;99.90;;;;;;5079936;28;19912;-73
2023/05/25 08:42:08;;;;;;;;;;;14.40;99.90;;;;;;5079135;28;19965;-73
2023/05/25 08:44:35;;;;;;;;;;;14.20;99.90;;;;;;5078472;28;20494;-73
2023/05/25 08:47:04;;;;;;;;;;;14.30;99.90;;;;;;5078026;28;19920;-73
2023/05/25 08:49:32;;;;;;;;;;;14.40;99.90;;;;;;5076960;28;19956;-73
2023/05/25 08:51:58;;;;;;;;;;;14.40;99.90;;;;;;5080094;28;19926;-73
2023/05/25 08:54:27;;;;;;;;;;;14.50;99.90;;;;;;5078197;28;20375;-73
2023/05/25 08:57:02;;;;;;;;;;;14.50;99.90;;;;;;5077046;28;19912;-70
2023/05/25 08:59:28;;;;;;;;;;;14.50;99.90;;;;;;5078811;28;19916;-71
2023/05/25 09:01:57;;;;;;;;;;;14.60;99.90;;;;;;5075265;28;19916;-70
2023/05/25 09:04:24;;;;;;;;;;;14.70;99.90;;;;;;5060489;28;19916;-70
2023/05/25 09:06:50;;;;;;;;;;;14.80;99.90;;;;;;5079866;28;19908;-71
2023/05/25 09:09:15;;;;;;;;;;;14.90;99.90;;;;;;5080732;28;19908;-74
2023/05/25 09:11:42;;;;;;;;;;;14.90;99.90;;;;;;5076457;28;19924;-73
2023/05/25 09:14:07;;;;;;;;;;;15.00;99.90;;;;;;5073615;28;20645;-73
2023/05/25 09:16:35;;;;;;;;;;;15.10;99.90;;;;;;5077464;28;19916;-74
2023/05/25 09:19:01;;;;;;;;;;;15.20;99.90;;;;;;5076274;28;20145;-72
2023/05/25 09:21:30;;;;;;;;;;;15.20;99.90;;;;;;5079937;28;20067;-71
2023/05/25 09:23:57;;;;;;;;;;;15.20;99.90;;;;;;5094087;28;19909;-69
2023/05/25 09:26:22;;;;;;;;;;;15.20;99.90;;;;;;5074983;28;19921;-72
2023/05/25 09:28:48;;;;;;;;;;;15.20;99.90;;;;;;5058985;28;19981;-70
2023/05/25 09:31:14;;;;;;;;;;;15.20;99.90;;;;;;5078091;28;20281;-70
2023/05/25 09:33:40;;;;;;;;;;;15.10;99.90;;;;;;5073316;28;19919;-70
2023/05/25 09:36:06;;;;;;;;;;;15.10;99.90;;;;;;5076307;28;19908;-72
2023/05/25 09:38:32;;;;;;;;;;;15.20;99.90;;;;;;5076039;28;20284;-72
2023/05/25 09:40:58;;;;;;;;;;;15.30;99.90;;;;;;5076328;28;20429;-70
2023/05/25 09:43:23;;;;;;;;;;;15.30;99.90;;;;;;5078350;28;19978;-72
2023/05/25 09:45:52;;;;;;;;;;;15.40;99.90;;;;;;5082750;28;19920;-72
2023/05/25 09:48:18;;;;;;;;;;;15.40;99.90;;;;;;5057461;28;20108;-69
2023/05/25 09:50:44;;;;;;;;;;;15.50;99.90;;;;;;5077062;28;19920;-70
2023/05/25 09:53:10;;;;;;;;;;;15.60;99.90;;;;;;5075278;28;19923;-72
2023/05/25 09:55:36;;;;;;;;;;;15.70;99.90;;;;;;5073195;28;20524;-70
2023/05/25 09:58:01;;;;;;;;;;;15.70;99.90;;;;;;5078052;28;19942;-72
2023/05/25 10:00:27;;;;;;;;;;;15.60;99.90;;;;;;5057242;28;19908;-70
2023/05/25 10:02:53;;;;;;;;;;;15.70;99.90;;;;;;5074880;28;19966;-72
2023/05/25 10:05:18;;;;;;;;;;;15.80;99.90;;;;;;5073229;28;19977;-75
2023/05/25 10:07:45;;;;;;;;;;;16.00;99.90;;;;;;5072537;28;19913;-70
2023/05/25 10:10:13;;;;;;;;;;;16.10;99.90;;;;;;5070605;28;19919;-69
2023/05/25 10:12:40;;;;;;;;;;;16.20;99.90;;;;;;5091915;28;19923;-72
2023/05/25 10:15:06;;;;;;;;;;;16.10;99.90;;;;;;5074043;28;19923;-72
2023/05/25 10:17:33;;;;;;;;;;;16.10;99.90;;;;;;5082087;28;19913;-73
2023/05/25 10:19:59;;;;;;;;;;;16.10;99.80;;;;;;5076206;28;19924;-71
2023/05/25 10:22:30;;;;;;;;;;;16.00;99.90;;;;;;5072139;28;20441;-71
2023/05/25 10:24:58;;;;;;;;;;;16.10;99.80;;;;;;5077979;28;19916;-74
2023/05/25 10:27:27;;;;;;;;;;;16.10;99.80;;;;;;5073045;28;19908;-72
2023/05/25 10:29:54;;;;;;;;;;;16.10;98.80;;;;;;5074837;28;19916;-73
2023/05/25 10:32:20;;;;;;;;;;;16.20;99.50;;;;;;5064893;28;19966;-72
2023/05/25 10:34:46;;;;;;;;;;;16.30;99.90;;;;;;5079260;28;20313;-71
2023/05/25 10:37:13;;;;;;;;;;;16.40;99.80;;;;;;5086313;28;19912;-74
2023/05/25 10:39:40;;;;;;;;;;;16.50;99.90;;;;;;5073488;28;20364;-71
2023/05/25 10:42:05;;;;;;;;;;;16.60;99.80;;;;;;5077748;28;19999;-73
2023/05/25 10:44:31;;;;;;;;;;;16.80;99.90;;;;;;5073961;28;20086;-72
2023/05/25 10:47:02;;;;;;;;;;;16.90;99.20;;;;;;5076164;28;19970;-71
2023/05/25 10:49:32;;;;;;;;;;;17.00;98.80;;;;;;5077340;28;19962;-72
2023/05/25 10:51:58;;;;;;;;;;;16.90;98.30;;;;;;5069269;28;19920;-72
2023/05/25 10:54:28;;;;;;;;;;;16.80;98.00;;;;;;5075104;28;19916;-74
2023/05/25 10:57:07;;;;;;;;;;;16.90;98.20;;;;;;5076789;28;20694;-74
2023/05/25 10:59:33;;;;;;;;;;;17.10;97.40;;;;;;5075204;28;19916;-72
2023/05/25 11:02:04;;;;;;;;;;;17.30;96.80;;;;;;5078710;28;19927;-74
2023/05/25 11:04:35;;;;;;;;;;;17.60;96.60;;;;;;5074938;28;19932;-73
2023/05/25 11:07:01;;;;;;;;;;;17.80;95.60;;;;;;5073988;28;20450;-72
2023/05/25 11:09:27;;;;;;;;;;;17.90;95.90;;;;;;5081845;28;19938;-72
2023/05/25 11:11:57;;;;;;;;;;;17.90;96.70;;;;;;5078575;28;19920;-72
2023/05/25 11:14:28;;;;;;;;;;;17.90;95.70;;;;;;5075579;28;19940;-73
2023/05/25 11:17:10;;;;;;;;;;;18.00;95.50;;;;;;5092594;28;19908;-70
2023/05/25 11:19:42;;;;;;;;;;;18.50;94.50;;;;;;5093391;28;20371;-70
2023/05/25 11:22:14;;;;;;;;;;;19.00;93.80;;;;;;5093277;28;19986;-70
2023/05/25 11:24:46;;;;;;;;;;;19.80;92.60;;;;;;5079117;28;20011;-73
2023/05/25 11:27:12;;;;;;;;;;;20.80;90.40;;;;;;5080983;28;19934;-75
2023/05/25 11:29:38;;;;;;;;;;;20.80;85.90;;;;;;5077734;28;19920;-77
2023/05/25 11:32:04;;;;;;;;;;;21.70;83.40;;;;;;5079849;28;19978;-75
2023/05/25 11:34:33;;;;;;;;;;;23.10;74.30;;;;;;5080348;28;20073;-77
2023/05/25 11:37:00;;;;;;;;;;;25.20;69.60;;;;;;5084161;28;19978;-72
2023/05/25 11:39:27;;;;;;;;;;;26.30;62.40;;;;;;5075576;28;19915;-71
2023/05/25 11:41:56;;;;;;;;;;;27.00;57.50;;;;;;5078795;28;19969;-71
2023/05/25 11:44:28;;;;;;;;;;;27.90;55.40;;;;;;5079283;28;19924;-70
2023/05/25 11:46:55;;;;;;;;;;;28.70;52.20;;;;;;5079025;28;19920;-71
2023/05/25 11:49:22;;;;;;;;;;;29.00;51.40;;;;;;5074223;28;20007;-71
2023/05/25 11:51:47;;;;;;;;;;;29.40;49.20;;;;;;5061316;28;19916;-70
2023/05/25 11:54:20;;;;;;;;;;;28.70;48.30;;;;;;5081258;28;20489;-74
2023/05/25 11:56:45;;;;;;;;;;;28.30;49.10;;;;;;5058117;28;20359;-71
2023/05/25 11:59:11;;;;;;;;;;;27.70;49.50;;;;;;5078231;28;19916;-74
2023/05/25 12:01:37;;;;;;;;;;;26.80;50.00;;;;;;5078833;28;19923;-74
2023/05/25 12:04:07;;;;;;;;;;;26.60;50.90;;;;;;5060537;28;20031;-72
2023/05/25 12:06:35;;;;;;;;;;;25.80;51.30;;;;;;5078024;28;19916;-72
2023/05/25 12:09:05;;;;;;;;;;;25.50;51.90;;;;;;5077912;28;19966;-74
2023/05/25 12:11:32;;;;;;;;;;;25.80;51.40;;;;;;5079064;28;19923;-73
2023/05/25 12:13:58;;;;;;;;;;;26.10;51.60;;;;;;5080692;28;19913;-73
2023/05/25 12:16:24;;;;;;;;;;;26.30;51.60;;;;;;5081396;28;19936;-72
2023/05/25 12:18:50;;;;;;;;;;;26.40;51.60;;;;;;5077478;28;19912;-72
2023/05/25 12:21:16;;;;;;;;;;;26.40;50.40;;;;;;5079393;28;19916;-72
2023/05/25 12:23:42;;;;;;;;;;;26.50;50.90;;;;;;5080446;28;19927;-73
2023/05/25 12:26:15;;;;;;;;;;;26.40;50.80;;;;;;5077209;28;20265;-75
2023/05/25 12:28:56;;;;;;;;;;;26.70;49.90;;;;;;5076806;28;19955;-75
2023/05/25 12:31:23;;;;;;;;;;;26.40;50.80;;;;;;5076144;28;20332;-75
2023/05/25 12:34:07;;;;;;;;;;;26.10;50.80;;;;;;5073967;28;19924;-72
2023/05/25 12:36:52;;;;;;;;;;;25.90;52.20;;;;;;5076402;28;19928;-73
2023/05/25 12:39:30;;;;;;;;;;;26.40;53.10;;;;;;5080484;28;20414;-71
2023/05/25 12:41:59;;;;;;;;;;;25.80;51.60;;;;;;5080148;28;20427;-71
2023/05/25 12:44:27;;;;;;;;;;;26.30;49.80;;;;;;5068848;28;19935;-72
2023/05/25 12:46:54;;;;;;;;;;;26.60;50.90;;;;;;5081241;28;19924;-74
2023/05/25 12:49:31;;;;;;;;;;;27.20;49.70;;;;;;5079303;28;20378;-74
2023/05/25 12:51:58;;;;;;;;;;;27.40;48.80;;;;;;5077563;28;19969;-73
2023/05/25 12:54:40;;;;;;;;;;;27.10;50.80;;;;;;5077747;28;19923;-73
2023/05/25 12:57:07;;;;;;;;;;;27.70;48.90;;;;;;5077611;28;20163;-74
2023/05/25 12:59:36;;;;;;;;;;;27.10;50.00;;;;;;5090826;28;19920;-72
2023/05/25 13:02:04;;;;;;;;;;;27.30;49.10;;;;;;5072311;28;20897;-72
2023/05/25 13:04:29;;;;;;;;;;;27.70;48.20;;;;;;5077093;28;20015;-72
2023/05/25 13:06:55;;;;;;;;;;;28.00;48.10;;;;;;5077757;28;19999;-72
2023/05/25 13:09:22;;;;;;;;;;;28.50;47.50;;;;;;5080199;28;20379;-73
2023/05/25 13:11:48;;;;;;;;;;;28.90;47.30;;;;;;5061797;28;20307;-71
2023/05/25 13:14:13;;;;;;;;;;;28.50;48.30;;;;;;5079647;28;19908;-71
2023/05/25 13:16:39;;;;;;;;;;;29.00;46.10;;;;;;5075475;28;19916;-72
2023/05/25 13:19:04;;;;;;;;;;;29.90;45.30;;;;;;5077232;28;19916;-74
2023/05/25 13:21:31;;;;;;;;;;;29.70;46.00;;;;;;5094337;28;20377;-72
2023/05/25 13:23:57;;;;;;;;;;;30.20;44.20;;;;;;5078634;28;19912;-72
2023/05/25 13:26:23;;;;;;;;;;;30.40;44.60;;;;;;5078466;28;19995;-74
2023/05/25 13:28:49;;;;;;;;;;;29.70;45.30;;;;;;5076406;28;20010;-75
2023/05/25 13:31:14;;;;;;;;;;;29.10;45.70;;;;;;5076138;28;20046;-74
2023/05/25 13:33:40;;;;;;;;;;;29.30;44.90;;;;;;5078434;28;20379;-75
2023/05/25 13:36:09;;;;;;;;;;;29.60;45.10;;;;;;5074891;28;19912;-74
2023/05/25 13:38:35;;;;;;;;;;;30.10;44.20;;;;;;5078267;28;19916;-74
2023/05/25 13:41:02;;;;;;;;;;;30.60;43.70;;;;;;5075814;28;20435;-72
2023/05/25 13:43:27;;;;;;;;;;;31.10;43.50;;;;;;5095677;28;20292;-72
2023/05/25 13:48:21;;;;;;;;;;;30.40;44.40;;;;;;5078700;28;19925;-70
2023/05/25 13:50:48;;;;;;;;;;;30.00;45.30;;;;;;5069452;28;19961;-71
2023/05/25 13:53:13;;;;;;;;;;;30.40;43.70;;;;;;5063262;28;20398;-70
2023/05/25 13:55:39;;;;;;;;;;;30.40;43.20;;;;;;5080095;28;19912;-71
2023/05/25 13:58:05;;;;;;;;;;;30.00;44.00;;;;;;5077509;28;20019;-71
2023/05/25 14:00:30;;;;;;;;;;;30.40;44.10;;;;;;5037923;28;19920;-72
2023/05/25 14:02:56;;;;;;;;;;;31.10;43.20;;;;;;5058185;28;19913;-71
2023/05/25 14:05:22;;;;;;;;;;;30.70;43.10;;;;;;5057522;28;19916;-71
2023/05/25 14:07:47;;;;;;;;;;;30.60;43.30;;;;;;5078061;28;19951;-71
2023/05/25 14:10:13;;;;;;;;;;;30.40;44.00;;;;;;5071942;28;19916;-71
2023/05/25 14:12:41;;;;;;;;;;;30.90;42.60;;;;;;5072231;28;19919;-71
2023/05/25 14:15:07;;;;;;;;;;;30.90;43.00;;;;;;5070033;28;19973;-72
2023/05/25 14:17:33;;;;;;;;;;;30.40;42.80;;;;;;5057873;28;19917;-71